Time;durP1;ratioP1;P1;durP2;ratioP2;P2;SDS_P1;SDS_P2;PMS_P1;PMS_P2;Temp;Humidity;BMP_temperature;BMP_pressure;BME280_temperature;BME280_humidity;BME280_pressure;Samples;Min_cycle;Max_cycle;Signal;HPM_P1;HPM_P2
2022/03/06 00:00:40;;;;;;;15.60;9.60;;;;;;;-1.05;nan;99706.53;4967525;28;20278;-74
2022/03/06 00:03:06;;;;;;;12.75;7.25;;;;;;;-1.03;nan;99711.66;4971188;28;20227;-74
2022/03/06 00:05:31;;;;;;;13.80;8.27;;;;;;;-1.06;nan;99716.84;4970440;28;20576;-74
2022/03/06 00:07:59;;;;;;;10.60;8.03;;;;;;;-1.08;nan;99706.59;4968122;28;20689;-75
2022/03/06 00:10:25;;;;;;;17.15;10.95;;;;;;;-1.14;nan;99704.06;4970368;28;20220;-74
2022/03/06 00:12:51;;;;;;;13.50;8.25;;;;;;;-1.18;nan;99707.59;4967277;28;20204;-74
2022/03/06 00:15:21;;;;;;;15.75;9.35;;;;;;;-1.23;nan;99699.91;4969208;28;20260;-74
2022/03/06 00:17:47;;;;;;;16.25;9.15;;;;;;;-1.22;nan;99706.75;4971611;28;20234;-75
2022/03/06 00:20:13;;;;;;;12.10;8.07;;;;;;;-1.27;nan;99700.84;4970541;28;20231;-74
2022/03/06 00:22:38;;;;;;;11.80;7.60;;;;;;;-1.29;nan;99694.00;4970090;28;20218;-75
2022/03/06 00:25:05;;;;;;;14.87;9.27;;;;;;;-1.28;nan;99700.84;4969880;28;20263;-74
2022/03/06 00:27:30;;;;;;;11.15;6.75;;;;;;;-1.29;nan;99705.16;4967742;28;20211;-75
2022/03/06 00:29:56;;;;;;;13.07;9.37;;;;;;;-1.36;nan;99699.22;4971651;28;20509;-75
2022/03/06 00:32:21;;;;;;;17.17;9.57;;;;;;;-1.35;nan;99700.06;4969655;28;20481;-75
2022/03/06 00:34:48;;;;;;;16.00;8.57;;;;;;;-1.37;nan;99707.00;4962673;28;20200;-74
2022/03/06 00:37:15;;;;;;;12.33;7.40;;;;;;;-1.40;nan;99707.88;4966990;28;20216;-74
2022/03/06 00:39:41;;;;;;;9.15;7.20;;;;;;;-1.44;nan;99703.63;4969486;28;20204;-74
2022/03/06 00:42:07;;;;;;;10.73;6.88;;;;;;;-1.47;nan;99703.66;4970282;28;20762;-74
2022/03/06 00:44:33;;;;;;;12.20;7.18;;;;;;;-1.52;nan;99715.75;4968746;28;20216;-74
2022/03/06 00:46:58;;;;;;;13.53;7.17;;;;;;;-1.56;nan;99716.69;4968785;28;20210;-74
2022/03/06 00:49:24;;;;;;;10.20;7.20;;;;;;;-1.59;nan;99711.56;4967382;28;20205;-74
2022/03/06 00:51:49;;;;;;;11.10;7.37;;;;;;;-1.61;nan;99708.16;4969867;28;20244;-74
2022/03/06 00:54:15;;;;;;;12.60;8.13;;;;;;;-1.60;nan;99713.28;4969317;28;20263;-74
2022/03/06 00:56:40;;;;;;;18.07;9.40;;;;;;;-1.60;nan;99710.69;4971639;28;20236;-74
2022/03/06 00:59:05;;;;;;;12.33;7.60;;;;;;;-1.63;nan;99715.03;4971932;28;20302;-75
2022/03/06 01:01:31;;;;;;;14.00;7.20;;;;;;;-1.62;nan;99709.88;4970311;28;20236;-74
2022/03/06 01:03:57;;;;;;;11.10;6.70;;;;;;;-1.60;nan;99709.84;4976107;28;20240;-74
2022/03/06 01:06:22;;;;;;;11.00;7.20;;;;;;;-1.66;nan;99715.09;4980416;28;20596;-74
2022/03/06 01:08:48;;;;;;;12.00;7.27;;;;;;;-1.76;nan;99708.34;4981209;28;20723;-74
2022/03/06 01:11:13;;;;;;;13.37;8.43;;;;;;;-1.86;nan;99712.75;4978840;28;20227;-74
2022/03/06 01:13:38;;;;;;;10.40;7.47;;;;;;;-1.94;nan;99712.00;4976019;28;20704;-74
2022/03/06 01:16:04;;;;;;;13.17;7.17;;;;;;;-1.93;nan;99713.69;4977233;28;20223;-74
2022/03/06 01:18:29;;;;;;;14.30;9.00;;;;;;;-1.92;nan;99707.66;4967443;28;20371;-74
2022/03/06 01:20:55;;;;;;;12.53;8.40;;;;;;;-1.94;nan;99710.25;4977047;28;20247;-74
2022/03/06 01:23:20;;;;;;;13.17;7.70;;;;;;;-1.95;nan;99712.84;4976587;28;20217;-74
2022/03/06 01:25:45;;;;;;;13.27;8.03;;;;;;;-1.93;nan;99705.97;4975444;28;20210;-73
2022/03/06 01:28:11;;;;;;;11.57;7.73;;;;;;;-1.97;nan;99709.44;4976227;28;20691;-73
2022/03/06 01:30:36;;;;;;;10.00;6.37;;;;;;;-2.03;nan;99708.63;4976657;28;20275;-73
2022/03/06 01:33:02;;;;;;;14.90;8.77;;;;;;;-2.08;nan;99706.97;4979328;28;20216;-73
2022/03/06 01:35:27;;;;;;;13.80;6.43;;;;;;;-2.14;nan;99705.31;4976259;28;20216;-73
2022/03/06 01:37:52;;;;;;;15.47;8.10;;;;;;;-2.15;nan;99706.19;4977794;28;20231;-73
2022/03/06 01:40:18;;;;;;;18.30;8.37;;;;;;;-2.17;nan;99697.63;4977210;28;20223;-73
2022/03/06 01:42:46;;;;;;;12.57;7.80;;;;;;;-2.17;nan;99707.06;4977927;28;20328;-73
2022/03/06 01:45:13;;;;;;;16.42;8.40;;;;;;;-2.16;nan;99704.50;4975576;28;20459;-73
2022/03/06 01:47:41;;;;;;;14.90;8.00;;;;;;;-2.14;nan;99707.88;4978418;28;20294;-73
2022/03/06 01:50:14;;;;;;;8.43;6.47;;;;;;;-2.10;nan;99704.44;4977187;28;20247;-74
2022/03/06 01:52:41;;;;;;;18.25;9.25;;;;;;;-2.08;nan;99713.00;4976322;28;20199;-73
2022/03/06 01:55:07;;;;;;;15.63;7.90;;;;;;;-2.03;nan;99718.91;4975741;28;20235;-73
2022/03/06 01:57:32;;;;;;;10.63;7.00;;;;;;;-2.01;nan;99713.75;4974247;28;20268;-73
2022/03/06 01:59:59;;;;;;;13.70;9.10;;;;;;;-2.02;nan;99718.06;4978064;28;20307;-73
2022/03/06 02:02:25;;;;;;;12.55;7.45;;;;;;;-2.04;nan;99706.09;4975229;28;20466;-73
2022/03/06 02:04:50;;;;;;;15.77;8.93;;;;;;;-2.03;nan;99716.34;4976905;28;20216;-73
2022/03/06 02:07:16;;;;;;;14.80;8.53;;;;;;;-2.03;nan;99712.91;4975525;28;20214;-73
2022/03/06 02:09:41;;;;;;;13.17;8.47;;;;;;;-1.99;nan;99712.03;4976140;28;20212;-73
2022/03/06 02:12:23;;;;;;;11.37;7.77;;;;;;;-2.00;nan;99707.72;4978039;28;20429;-73
2022/03/06 02:14:56;;;;;;;14.35;8.77;;;;;;;-2.01;nan;99717.19;4976965;28;20304;-73
2022/03/06 02:17:22;;;;;;;14.07;7.93;;;;;;;-2.02;nan;99712.91;4975143;28;20268;-73
2022/03/06 02:20:00;;;;;;;17.83;7.70;;;;;;;-2.00;nan;99718.03;4977112;28;20701;-73
2022/03/06 02:22:32;;;;;;;14.45;8.30;;;;;;;-1.98;nan;99729.16;4976306;28;20557;-73
2022/03/06 02:24:59;;;;;;;14.77;7.93;;;;;;;-1.96;nan;99721.44;4976500;28;20693;-73
2022/03/06 02:27:25;;;;;;;11.70;7.70;;;;;;;-1.94;nan;99719.72;4977245;28;20693;-73
2022/03/06 02:29:50;;;;;;;11.90;7.00;;;;;;;-1.92;nan;99721.38;4975676;28;20247;-73
2022/03/06 02:32:20;;;;;;;16.63;11.20;;;;;;;-1.89;nan;99718.78;4976540;28;20490;-73
2022/03/06 02:34:47;;;;;;;13.90;8.82;;;;;;;-1.87;nan;99718.75;4974849;28;20239;-73
2022/03/06 02:37:15;;;;;;;15.23;9.13;;;;;;;-1.86;nan;99718.75;4974676;28;20240;-73
2022/03/06 02:39:43;;;;;;;17.63;8.60;;;;;;;-1.87;nan;99724.75;4974928;28;20687;-73
2022/03/06 02:42:10;;;;;;;12.45;8.57;;;;;;;-1.87;nan;99722.19;4965505;28;20212;-73
2022/03/06 02:44:35;;;;;;;16.17;8.07;;;;;;;-1.85;nan;99724.75;4976538;28;20219;-73
2022/03/06 02:47:01;;;;;;;17.23;8.30;;;;;;;-1.86;nan;99720.47;4975110;28;20212;-73
2022/03/06 02:49:26;;;;;;;16.20;8.37;;;;;;;-1.86;nan;99720.47;4976499;28;21100;-73
2022/03/06 02:51:52;;;;;;;13.13;8.20;;;;;;;-1.86;nan;99721.31;4976973;28;20240;-73
2022/03/06 02:54:17;;;;;;;12.60;8.63;;;;;;;-1.83;nan;99723.88;4977050;28;20226;-73
2022/03/06 02:56:47;;;;;;;14.90;9.50;;;;;;;-1.83;nan;99728.16;4976249;28;20228;-73
2022/03/06 02:59:12;;;;;;;16.40;9.45;;;;;;;-1.83;nan;99728.16;4974776;28;20236;-73
2022/03/06 03:01:40;;;;;;;14.07;8.60;;;;;;;-1.84;nan;99727.28;4976266;28;20246;-73
2022/03/06 03:04:06;;;;;;;13.93;7.80;;;;;;;-1.87;nan;99721.34;4977041;28;20204;-73
2022/03/06 03:06:31;;;;;;;17.13;9.50;;;;;;;-1.89;nan;99716.22;4975519;28;20210;-73
2022/03/06 03:08:57;;;;;;;12.00;9.03;;;;;;;-1.90;nan;99729.94;4974768;28;20857;-73
2022/03/06 03:11:23;;;;;;;14.60;8.37;;;;;;;-1.91;nan;99725.66;4975184;28;20306;-73
2022/03/06 03:13:48;;;;;;;12.23;7.80;;;;;;;-1.93;nan;99726.56;4975860;28;20409;-73
2022/03/06 03:16:14;;;;;;;8.80;7.30;;;;;;;-1.95;nan;99726.56;4975878;28;20219;-73
2022/03/06 03:18:40;;;;;;;13.37;7.13;;;;;;;-1.97;nan;99722.28;4974647;28;20235;-73
2022/03/06 03:21:05;;;;;;;11.93;7.30;;;;;;;-1.99;nan;99729.22;4974066;28;20236;-73
2022/03/06 03:23:30;;;;;;;11.97;8.13;;;;;;;-2.05;nan;99727.56;4972863;28;20676;-73
2022/03/06 03:25:56;;;;;;;16.47;7.20;;;;;;;-2.08;nan;99725.88;4972919;28;20349;-73
2022/03/06 03:28:22;;;;;;;11.53;7.93;;;;;;;-2.12;nan;99726.75;4972197;28;20207;-73
2022/03/06 03:30:48;;;;;;;13.30;8.10;;;;;;;-2.15;nan;99736.22;4972201;28;20746;-73
2022/03/06 03:33:13;;;;;;;11.13;7.47;;;;;;;-2.15;nan;99743.94;4974751;28;21190;-73
2022/03/06 03:35:38;;;;;;;11.70;7.37;;;;;;;-2.19;nan;99745.69;4973516;28;20626;-73
2022/03/06 03:38:04;;;;;;;13.50;8.57;;;;;;;-2.20;nan;99748.28;4975021;28;20512;-73
2022/03/06 03:40:30;;;;;;;14.93;7.97;;;;;;;-2.22;nan;99743.13;4974300;28;20232;-73
2022/03/06 03:42:55;;;;;;;14.90;8.80;;;;;;;-2.22;nan;99748.28;4973131;28;20208;-73
2022/03/06 03:45:21;;;;;;;14.53;8.90;;;;;;;-2.20;nan;99756.00;4973770;28;20574;-73
2022/03/06 03:47:46;;;;;;;14.03;7.67;;;;;;;-2.26;nan;99754.34;4973662;28;20206;-73
2022/03/06 03:50:12;;;;;;;10.47;7.80;;;;;;;-2.32;nan;99751.81;4973852;28;20266;-73
2022/03/06 03:52:37;;;;;;;15.27;7.27;;;;;;;-2.37;nan;99756.16;4972676;28;20263;-73
2022/03/06 03:55:03;;;;;;;15.47;10.30;;;;;;;-2.40;nan;99758.72;4968077;28;20211;-73
2022/03/06 03:57:29;;;;;;;14.02;8.00;;;;;;;-2.41;nan;99754.47;4975653;28;20279;-73
2022/03/06 03:59:54;;;;;;;16.13;8.63;;;;;;;-2.43;nan;99762.22;4974099;28;20647;-73
2022/03/06 04:02:20;;;;;;;18.73;11.40;;;;;;;-2.45;nan;99764.78;4973465;28;20873;-73
2022/03/06 04:04:45;;;;;;;18.90;9.53;;;;;;;-2.48;nan;99763.97;4972695;28;20228;-73
2022/03/06 04:07:11;;;;;;;14.77;8.90;;;;;;;-2.53;nan;99761.44;4974652;28;20556;-73
2022/03/06 04:09:36;;;;;;;15.97;8.37;;;;;;;-2.54;nan;99766.56;4973572;28;20222;-73
2022/03/06 04:12:02;;;;;;;13.73;7.50;;;;;;;-2.59;nan;99763.16;4971423;28;20204;-73
2022/03/06 04:14:27;;;;;;;14.67;8.40;;;;;;;-2.65;nan;99771.78;4963753;28;20658;-73
2022/03/06 04:16:52;;;;;;;15.53;8.23;;;;;;;-2.70;nan;99778.69;4964294;28;20287;-73
2022/03/06 04:19:18;;;;;;;14.43;8.57;;;;;;;-2.74;nan;99777.84;4975220;28;20196;-73
2022/03/06 04:21:43;;;;;;;18.20;8.63;;;;;;;-2.72;nan;99777.88;4974594;28;20948;-73
2022/03/06 04:24:09;;;;;;;12.07;9.20;;;;;;;-2.73;nan;99777.00;4971714;28;20696;-73
2022/03/06 04:26:35;;;;;;;16.40;9.07;;;;;;;-2.73;nan;99778.72;4973792;28;20668;-73
2022/03/06 04:29:00;;;;;;;18.10;9.48;;;;;;;-2.75;nan;99781.31;4971871;28;20242;-73
2022/03/06 04:31:26;;;;;;;17.63;9.50;;;;;;;-2.75;nan;99776.16;4975121;28;20222;-73
2022/03/06 04:33:51;;;;;;;14.50;8.07;;;;;;;-2.74;nan;99777.00;4975336;28;20207;-73
2022/03/06 04:36:17;;;;;;;14.50;9.10;;;;;;;-2.74;nan;99784.72;4972353;28;20751;-73
2022/03/06 04:38:42;;;;;;;14.33;8.80;;;;;;;-2.76;nan;99782.16;4973057;28;20754;-73
2022/03/06 04:41:09;;;;;;;17.87;10.73;;;;;;;-2.75;nan;99795.88;4974287;28;20224;-73
2022/03/06 04:43:34;;;;;;;18.63;8.10;;;;;;;-2.77;nan;99795.88;4974799;28;20251;-73
2022/03/06 04:46:00;;;;;;;14.10;8.73;;;;;;;-2.83;nan;99803.63;4972599;28;20228;-73
2022/03/06 04:48:26;;;;;;;17.25;10.90;;;;;;;-2.93;nan;99799.41;4977694;28;20716;-73
2022/03/06 04:53:33;;;;;;;10.70;8.13;;;;;;;-3.05;nan;99802.91;4962874;28;20235;-74
2022/03/06 04:55:59;;;;;;;15.60;8.17;;;;;;;-3.08;nan;99800.34;4973535;28;20910;-74
2022/03/06 04:58:24;;;;;;;17.30;7.83;;;;;;;-3.06;nan;99800.34;4977768;28;20411;-74
2022/03/06 05:00:49;;;;;;;18.30;11.33;;;;;;;-3.00;nan;99802.88;4975994;28;20482;-74
2022/03/06 05:03:15;;;;;;;14.37;9.77;;;;;;;-2.97;nan;99795.13;4968927;28;20549;-74
2022/03/06 05:05:41;;;;;;;14.70;8.90;;;;;;;-3.00;nan;99788.28;4968551;28;20224;-74
2022/03/06 05:08:06;;;;;;;12.13;9.33;;;;;;;-3.05;nan;99808.06;4968768;28;20219;-74
2022/03/06 05:10:32;;;;;;;15.03;8.97;;;;;;;-3.05;nan;99796.91;4968136;28;20529;-74
2022/03/06 05:12:57;;;;;;;16.83;9.13;;;;;;;-3.07;nan;99799.50;4968744;28;20220;-74
2022/03/06 05:15:23;;;;;;;15.93;8.90;;;;;;;-3.09;nan;99801.22;4969019;28;20448;-74
2022/03/06 05:17:48;;;;;;;14.03;9.10;;;;;;;-3.17;nan;99805.53;4968461;28;20235;-74
2022/03/06 05:20:14;;;;;;;19.13;8.97;;;;;;;-3.24;nan;99803.84;4969101;28;20215;-74
2022/03/06 05:22:40;;;;;;;12.70;8.35;;;;;;;-3.32;nan;99803.91;4967759;28;20252;-74
2022/03/06 05:25:07;;;;;;;13.00;8.20;;;;;;;-3.39;nan;99812.47;4968101;28;20381;-74
2022/03/06 05:27:33;;;;;;;21.30;9.02;;;;;;;-3.46;nan;99806.50;4966248;28;20500;-74
2022/03/06 05:29:58;;;;;;;12.20;8.63;;;;;;;-3.49;nan;99811.66;4966816;28;20691;-74
2022/03/06 05:32:24;;;;;;;12.40;8.53;;;;;;;-3.52;nan;99813.38;4967200;28;20219;-74
2022/03/06 05:34:49;;;;;;;13.90;8.63;;;;;;;-3.51;nan;99815.06;4966446;28;20217;-74
2022/03/06 05:37:15;;;;;;;16.13;8.70;;;;;;;-3.48;nan;99808.25;4968449;28;20267;-74
2022/03/06 05:39:41;;;;;;;13.90;8.63;;;;;;;-3.48;nan;99802.22;4965854;28;20334;-74
2022/03/06 05:42:07;;;;;;;12.63;8.15;;;;;;;-3.56;nan;99804.84;4966710;28;20224;-74
2022/03/06 05:44:32;;;;;;;17.13;8.77;;;;;;;-3.64;nan;99807.44;4967198;28;20251;-74
2022/03/06 05:46:58;;;;;;;17.73;10.13;;;;;;;-3.74;nan;99810.88;4965662;28;20196;-74
2022/03/06 05:49:23;;;;;;;14.50;8.77;;;;;;;-3.83;nan;99806.63;4967823;28;20626;-74
2022/03/06 05:51:49;;;;;;;18.70;8.33;;;;;;;-3.86;nan;99816.91;4967098;28;20758;-74
2022/03/06 05:54:14;;;;;;;16.80;8.83;;;;;;;-3.93;nan;99815.19;4966801;28;20208;-74
2022/03/06 05:56:39;;;;;;;20.33;9.23;;;;;;;-3.97;nan;99817.75;4966453;28;20650;-74
2022/03/06 05:59:05;;;;;;;11.83;8.20;;;;;;;-4.01;nan;99820.31;4966471;28;20208;-74
2022/03/06 06:01:31;;;;;;;12.73;9.23;;;;;;;-4.04;nan;99822.06;4965891;28;20220;-74
2022/03/06 06:04:00;;;;;;;13.47;8.07;;;;;;;-4.07;nan;99819.50;4968597;28;20215;-74
2022/03/06 06:06:27;;;;;;;13.75;7.68;;;;;;;-4.04;nan;99829.75;4948797;28;21002;-74
2022/03/06 06:08:54;;;;;;;17.33;8.05;;;;;;;-4.01;nan;99827.19;4966185;28;20215;-74
2022/03/06 06:11:19;;;;;;;16.17;8.40;;;;;;;-3.99;nan;99830.59;4966562;28;20228;-74
2022/03/06 06:13:46;;;;;;;13.03;8.30;;;;;;;-3.95;nan;99827.16;4967702;28;20204;-74
2022/03/06 06:16:11;;;;;;;14.10;8.07;;;;;;;-3.89;nan;99834.88;4966814;28;20460;-73
2022/03/06 06:18:37;;;;;;;16.83;9.73;;;;;;;-3.86;nan;99832.28;4950539;28;20239;-73
2022/03/06 06:21:03;;;;;;;13.23;7.83;;;;;;;-3.83;nan;99832.28;4963844;28;20227;-73
2022/03/06 06:23:29;;;;;;;15.45;9.27;;;;;;;-3.78;nan;99840.84;4968324;28;20212;-75
2022/03/06 06:25:54;;;;;;;12.43;7.07;;;;;;;-3.74;nan;99835.69;4966555;28;20672;-72
2022/03/06 06:28:19;;;;;;;8.97;6.63;;;;;;;-3.71;nan;99839.09;4965974;28;20542;-72
2022/03/06 06:30:45;;;;;;;20.33;12.60;;;;;;;-3.64;nan;99845.94;4965258;28;21354;-72
2022/03/06 06:33:10;;;;;;;15.00;9.80;;;;;;;-3.62;nan;99839.09;4971030;28;20342;-71
2022/03/06 06:35:36;;;;;;;14.10;8.77;;;;;;;-3.56;nan;99841.63;4967405;28;20340;-72
2022/03/06 06:38:03;;;;;;;16.33;7.43;;;;;;;-3.48;nan;99848.44;4966741;28;20310;-72
2022/03/06 06:40:29;;;;;;;13.73;9.38;;;;;;;-3.42;nan;99840.75;4965938;28;20251;-72
2022/03/06 06:42:54;;;;;;;13.10;8.67;;;;;;;-3.37;nan;99842.44;4947453;28;20204;-72
2022/03/06 06:45:19;;;;;;;12.13;7.00;;;;;;;-3.33;nan;99841.53;4949293;28;20463;-72
2022/03/06 06:47:45;;;;;;;17.47;8.60;;;;;;;-3.28;nan;99850.97;4966231;28;20236;-72
2022/03/06 06:50:11;;;;;;;21.93;9.73;;;;;;;-3.23;nan;99846.66;4949916;28;20196;-72
2022/03/06 06:52:36;;;;;;;18.27;10.73;;;;;;;-3.14;nan;99850.03;4966717;28;20243;-74
2022/03/06 06:55:03;;;;;;;12.67;9.40;;;;;;;-3.05;nan;99849.16;4966725;28;20227;-74
2022/03/06 06:57:29;;;;;;;18.92;10.10;;;;;;;-2.98;nan;99850.81;4967338;28;20530;-74
2022/03/06 06:59:55;;;;;;;20.45;11.73;;;;;;;-2.87;nan;99847.34;4966123;28;20941;-74
2022/03/06 07:02:21;;;;;;;19.92;14.10;;;;;;;-2.80;nan;99839.59;4965618;28;21017;-74
2022/03/06 07:04:46;;;;;;;17.70;10.87;;;;;;;-2.70;nan;99855.81;4973462;28;20326;-74
2022/03/06 07:07:11;;;;;;;16.60;9.97;;;;;;;-2.62;nan;99861.78;4985228;28;20204;-73
2022/03/06 07:09:37;;;;;;;16.93;10.10;;;;;;;-2.55;nan;99850.59;4984916;28;20606;-73
2022/03/06 07:12:03;;;;;;;16.20;10.33;;;;;;;-2.45;nan;99853.97;4986508;28;20231;-73
2022/03/06 07:14:29;;;;;;;16.92;10.45;;;;;;;-2.38;nan;99854.75;4986053;28;20219;-73
2022/03/06 07:16:55;;;;;;;20.27;11.70;;;;;;;-2.30;nan;99852.97;4986123;28;20231;-73
2022/03/06 07:19:21;;;;;;;18.27;10.48;;;;;;;-2.19;nan;99850.31;4986361;28;21276;-73
2022/03/06 07:21:46;;;;;;;23.80;11.30;;;;;;;-2.10;nan;99853.69;4983177;28;20236;-73
2022/03/06 07:24:12;;;;;;;17.67;11.83;;;;;;;-2.01;nan;99858.75;4985459;28;20250;-73
2022/03/06 07:26:37;;;;;;;18.43;12.00;;;;;;;-1.92;nan;99862.97;4985287;28;20888;-73
2022/03/06 07:29:03;;;;;;;13.77;8.70;;;;;;;-1.84;nan;99860.31;4984584;28;20204;-73
2022/03/06 07:31:29;;;;;;;21.95;10.60;;;;;;;-1.74;nan;99863.69;4982136;28;20207;-73
2022/03/06 07:33:55;;;;;;;16.80;9.23;;;;;;;-1.65;nan;99863.56;4982512;28;20254;-73
2022/03/06 07:36:21;;;;;;;15.30;10.60;;;;;;;-1.57;nan;99862.66;4985487;28;20575;-73
2022/03/06 07:38:46;;;;;;;14.67;8.00;;;;;;;-1.46;nan;99864.25;4986069;28;20502;-73
2022/03/06 07:41:12;;;;;;;13.10;9.40;;;;;;;-1.37;nan;99867.59;4897093;28;20243;-73
2022/03/06 07:43:38;;;;;;;13.50;8.83;;;;;;;-1.26;nan;99867.47;4965747;28;20204;-73
2022/03/06 07:46:04;;;;;;;13.25;9.70;;;;;;;-1.17;nan;99874.22;4965067;28;20513;-73
2022/03/06 07:48:30;;;;;;;21.33;12.73;;;;;;;-1.08;nan;99873.25;4965646;28;20208;-73
2022/03/06 07:50:55;;;;;;;17.70;9.60;;;;;;;-1.02;nan;99868.06;4966336;28;20487;-74
2022/03/06 07:53:21;;;;;;;16.43;10.17;;;;;;;-0.93;nan;99867.94;4965463;28;20247;-73
2022/03/06 07:55:46;;;;;;;17.90;9.60;;;;;;;-0.84;nan;99870.38;4964588;28;20212;-74
2022/03/06 07:58:12;;;;;;;14.73;9.03;;;;;;;-0.75;nan;99872.84;4965707;28;20224;-74
2022/03/06 08:00:37;;;;;;;14.20;9.53;;;;;;;-0.67;nan;99871.03;4964914;28;20227;-73
2022/03/06 08:03:02;;;;;;;19.10;14.30;;;;;;;-0.52;nan;99863.94;4964248;28;20501;-74
2022/03/06 08:05:28;;;;;;;13.97;10.13;;;;;;;-0.47;nan;99868.16;4964457;28;20200;-74
2022/03/06 08:07:53;;;;;;;14.50;9.63;;;;;;;-0.34;nan;99871.41;4964959;28;20607;-74
2022/03/06 08:10:19;;;;;;;17.37;11.93;;;;;;;-0.23;nan;99868.66;4964087;28;20208;-75
2022/03/06 08:12:48;;;;;;;19.90;11.77;;;;;;;-0.13;nan;99875.41;4964822;28;20241;-74
2022/03/06 08:15:13;;;;;;;18.15;11.05;;;;;;;0.00;nan;99868.31;4964402;28;20464;-74
2022/03/06 08:17:38;;;;;;;17.70;9.23;;;;;;;0.09;nan;99854.38;4965451;28;20396;-74
2022/03/06 08:20:05;;;;;;;19.10;12.10;;;;;;;0.19;nan;99869.69;4964295;28;21418;-74
2022/03/06 08:22:31;;;;;;;17.25;10.02;;;;;;;0.36;nan;99865.97;4966814;28;20219;-74
2022/03/06 08:24:56;;;;;;;17.40;9.48;;;;;;;0.92;nan;99865.75;4968516;28;20211;-75
2022/03/06 08:27:22;;;;;;;17.30;10.47;;;;;;;1.95;nan;99862.59;4968936;28;20210;-74
2022/03/06 08:29:48;;;;;;;14.30;9.10;;;;;;;3.21;nan;99856.63;4967973;28;20579;-74
2022/03/06 08:32:14;;;;;;;15.73;10.27;;;;;;;4.22;nan;99845.63;4966966;28;20274;-74
2022/03/06 08:34:39;;;;;;;15.13;11.70;;;;;;;4.82;nan;99845.28;4968107;28;20211;-74
2022/03/06 08:37:05;;;;;;;20.60;10.63;;;;;;;5.69;nan;99836.75;4967643;28;20215;-74
2022/03/06 08:39:30;;;;;;;17.37;10.23;;;;;;;6.34;nan;99834.13;4968890;28;20680;-74
2022/03/06 08:41:55;;;;;;;15.30;9.57;;;;;;;6.93;nan;99837.66;4968088;28;20278;-74
2022/03/06 08:44:21;;;;;;;14.80;9.90;;;;;;;7.41;nan;99837.16;4968747;28;20235;-74
2022/03/06 08:46:47;;;;;;;14.73;10.83;;;;;;;8.00;nan;99830.00;4966615;28;20204;-74
2022/03/06 08:49:12;;;;;;;15.70;10.73;;;;;;;8.41;nan;99827.09;4968125;28;20237;-74
2022/03/06 08:51:38;;;;;;;14.47;10.20;;;;;;;8.72;nan;99834.22;4967566;28;20228;-75
2022/03/06 08:54:03;;;;;;;14.67;10.17;;;;;;;9.12;nan;99833.84;4968956;28;20570;-74
2022/03/06 08:56:29;;;;;;;16.20;11.27;;;;;;;9.44;nan;99824.22;4968567;28;20217;-75
2022/03/06 08:58:55;;;;;;;15.00;10.07;;;;;;;9.79;nan;99816.16;4969395;28;20196;-74
2022/03/06 09:01:21;;;;;;;18.00;11.77;;;;;;;10.16;nan;99823.59;4968584;28;21046;-74
2022/03/06 09:03:47;;;;;;;15.30;10.63;;;;;;;10.05;nan;99812.88;4968432;28;20204;-74
2022/03/06 09:06:12;;;;;;;15.30;11.65;;;;;;;9.24;nan;99820.94;4968093;28;20251;-74
2022/03/06 09:08:37;;;;;;;15.40;10.60;;;;;;;8.93;nan;99811.25;4968707;28;20231;-74
2022/03/06 09:11:05;;;;;;;16.17;10.90;;;;;;;9.08;nan;99807.81;4967864;28;21280;-74
2022/03/06 09:13:31;;;;;;;13.32;10.77;;;;;;;9.29;nan;99800.56;4968488;28;20204;-72
2022/03/06 09:15:56;;;;;;;11.00;9.90;;;;;;;9.33;nan;99811.72;4968552;28;20703;-71
2022/03/06 09:18:22;;;;;;;14.57;10.63;;;;;;;9.40;nan;99807.84;4968780;28;20243;-71
2022/03/06 09:20:47;;;;;;;16.50;10.70;;;;;;;9.03;nan;99806.38;4967884;28;20309;-74
2022/03/06 09:23:12;;;;;;;14.87;11.03;;;;;;;8.81;nan;99806.69;4968877;28;20208;-71
2022/03/06 09:25:38;;;;;;;17.27;10.50;;;;;;;9.02;nan;99810.78;4967623;28;20303;-73
2022/03/06 09:28:04;;;;;;;16.97;9.77;;;;;;;9.37;nan;99799.28;4968290;28;20211;-74
2022/03/06 09:30:31;;;;;;;12.77;9.30;;;;;;;9.59;nan;99809.44;4966480;28;20201;-77
2022/03/06 09:32:56;;;;;;;17.10;12.70;;;;;;;9.70;nan;99796.56;4964518;28;20556;-75
2022/03/06 09:35:22;;;;;;;15.00;11.60;;;;;;;8.95;nan;99808.56;4965683;28;20464;-74
2022/03/06 09:37:47;;;;;;;14.90;9.40;;;;;;;8.61;nan;99803.34;4966181;28;20752;-72
2022/03/06 09:40:13;;;;;;;17.47;10.97;;;;;;;8.25;nan;99805.22;4967120;28;20630;-74
2022/03/06 09:42:39;;;;;;;14.53;9.77;;;;;;;8.02;nan;99799.38;4966616;28;20227;-74
2022/03/06 09:45:10;;;;;;;14.68;10.02;;;;;;;7.54;nan;99806.91;4967622;28;20212;-74
2022/03/06 09:47:37;;;;;;;17.73;10.73;;;;;;;7.31;nan;99810.59;4966211;28;20200;-73
2022/03/06 09:50:04;;;;;;;9.50;6.97;;;;;;;7.04;nan;99802.28;4968567;28;20207;-74
2022/03/06 09:52:30;;;;;;;12.50;9.13;;;;;;;6.87;nan;99808.28;4967164;28;20236;-76
2022/03/06 09:54:55;;;;;;;15.00;8.70;;;;;;;6.70;nan;99813.44;4967487;28;20708;-73
2022/03/06 09:57:21;;;;;;;16.03;9.27;;;;;;;6.72;nan;99805.50;4965955;28;20593;-75
2022/03/06 09:59:47;;;;;;;10.90;8.35;;;;;;;6.60;nan;99809.53;4967165;28;20212;-74
2022/03/06 10:02:13;;;;;;;17.10;9.68;;;;;;;6.37;nan;99806.16;4965975;28;20205;-73
2022/03/06 10:04:39;;;;;;;12.30;8.43;;;;;;;6.39;nan;99804.31;4968187;28;20625;-74
2022/03/06 10:07:15;;;;;;;15.70;10.07;;;;;;;6.46;nan;99806.69;4965931;28;20291;-75
2022/03/06 10:09:45;;;;;;;13.70;8.60;;;;;;;6.54;nan;99807.19;4966499;28;20730;-72
2022/03/06 10:12:43;;;;;;;11.00;9.52;;;;;;;6.44;nan;99809.34;4966908;28;20224;-72
2022/03/06 10:15:10;;;;;;;11.60;8.80;;;;;;;6.40;nan;99800.81;4962950;28;20626;-73
2022/03/06 10:17:35;;;;;;;13.50;9.52;;;;;;;6.49;nan;99798.72;4965952;28;20259;-74
2022/03/06 10:20:06;;;;;;;13.33;9.10;;;;;;;6.56;nan;99800.13;4966974;28;20224;-72
2022/03/06 10:22:37;;;;;;;15.18;11.38;;;;;;;6.61;nan;99806.00;4965442;28;20224;-73
2022/03/06 10:25:13;;;;;;;14.20;7.97;;;;;;;6.54;nan;99800.22;4967238;28;20287;-73
2022/03/06 10:27:57;;;;;;;15.02;8.60;;;;;;;6.30;nan;99803.88;4964065;28;20274;-73
2022/03/06 10:30:34;;;;;;;10.38;7.88;;;;;;;6.28;nan;99800.50;4965424;28;20204;-73
2022/03/06 10:33:02;;;;;;;15.93;11.23;;;;;;;6.30;nan;99803.88;4965035;28;20486;-72
2022/03/06 10:35:39;;;;;;;13.30;8.80;;;;;;;6.01;nan;99803.34;4966125;28;20467;-72
2022/03/06 10:38:26;;;;;;;13.50;8.82;;;;;;;6.08;nan;99806.56;4965025;28;20223;-72
2022/03/06 10:40:53;;;;;;;15.05;9.57;;;;;;;6.26;nan;99792.72;4966282;28;20235;-73
2022/03/06 10:43:31;;;;;;;13.90;9.73;;;;;;;6.40;nan;99811.25;4965013;28;20196;-73
2022/03/06 10:46:13;;;;;;;12.48;8.23;;;;;;;6.39;nan;99798.25;4966665;28;20200;-72
2022/03/06 10:48:42;;;;;;;10.85;8.10;;;;;;;6.54;nan;99794.16;4965554;28;20216;-74
2022/03/06 10:51:10;;;;;;;13.18;8.15;;;;;;;6.65;nan;99791.91;4967111;28;20231;-74
2022/03/06 10:53:36;;;;;;;12.27;8.35;;;;;;;6.66;nan;99796.19;4967048;28;20240;-74
2022/03/06 10:56:14;;;;;;;17.20;10.80;;;;;;;6.42;nan;99801.56;4968680;28;20235;-73
2022/03/06 10:58:42;;;;;;;10.70;9.43;;;;;;;6.30;nan;99789.06;4967546;28;20356;-75
2022/03/06 11:01:08;;;;;;;11.17;9.77;;;;;;;6.33;nan;99795.91;4967852;28;20466;-76
2022/03/06 11:03:35;;;;;;;14.50;9.90;;;;;;;6.46;nan;99793.63;4967284;28;20946;-75
2022/03/06 11:06:07;;;;;;;11.63;9.88;;;;;;;6.61;nan;99791.16;4966511;28;20224;-74
2022/03/06 11:08:32;;;;;;;12.02;8.77;;;;;;;6.75;nan;99785.38;4967104;28;20204;-76
2022/03/06 11:10:58;;;;;;;12.43;9.07;;;;;;;6.83;nan;99798.91;4967196;28;20716;-74
2022/03/06 11:13:24;;;;;;;9.60;8.05;;;;;;;6.89;nan;99787.34;4965050;28;20240;-74
2022/03/06 11:15:50;;;;;;;11.13;7.87;;;;;;;6.82;nan;99789.38;4966921;28;20216;-75
2022/03/06 11:18:16;;;;;;;14.35;9.98;;;;;;;6.87;nan;99799.63;4966362;28;20491;-75
2022/03/06 11:20:44;;;;;;;12.20;9.10;;;;;;;6.89;nan;99797.78;4965947;28;20287;-74
2022/03/06 11:23:18;;;;;;;9.82;7.55;;;;;;;6.89;nan;99791.72;4966940;28;20944;-76
2022/03/06 11:26:09;;;;;;;15.15;9.55;;;;;;;6.85;nan;99791.84;4966324;28;20394;-74
2022/03/06 11:28:43;;;;;;;13.07;9.43;;;;;;;6.85;nan;99785.78;4943262;28;20307;-74
2022/03/06 11:31:12;;;;;;;14.25;8.77;;;;;;;6.79;nan;99792.13;4967362;28;20250;-75
2022/03/06 11:33:43;;;;;;;15.43;9.25;;;;;;;6.85;nan;99780.56;4965745;28;20287;-76
2022/03/06 11:36:21;;;;;;;12.93;9.13;;;;;;;6.97;nan;99780.00;4964780;28;20242;-74
2022/03/06 11:38:48;;;;;;;14.05;9.10;;;;;;;6.99;nan;99777.31;4966612;28;20318;-74
2022/03/06 11:41:15;;;;;;;12.23;8.90;;;;;;;6.92;nan;99781.13;4965326;28;20303;-76